createdAt,value
2023-05-03T00:01:22.105Z,18.63
2023-05-03T00:03:52.685Z,16.85
2023-05-03T00:06:20.037Z,15.48
2023-05-03T00:08:46.733Z,16.95
2023-05-03T00:11:13.669Z,22.48
2023-05-03T00:13:40.379Z,16.20
2023-05-03T00:16:07.164Z,16.15
2023-05-03T00:18:33.906Z,16.52
2023-05-03T00:21:00.611Z,16.65
2023-05-03T00:23:28.443Z,19.85
2023-05-03T00:25:58.905Z,18.13
2023-05-03T00:28:26.312Z,17.05
2023-05-03T00:30:53.487Z,17.58
2023-05-03T00:33:20.423Z,20.45
2023-05-03T00:35:47.188Z,15.93
2023-05-03T00:38:16.760Z,16.25
2023-05-03T00:40:43.497Z,18.40
2023-05-03T00:43:13.261Z,17.50
2023-05-03T00:45:40.080Z,19.05
2023-05-03T00:48:07.121Z,14.77
2023-05-03T00:50:33.953Z,15.05
2023-05-03T00:53:00.747Z,14.45
2023-05-03T00:55:31.026Z,17.45
2023-05-03T00:57:58.135Z,18.23
2023-05-03T01:00:25.189Z,16.58
2023-05-03T01:02:52.072Z,20.27
2023-05-03T01:05:18.986Z,17.05
2023-05-03T01:07:48.596Z,18.05
2023-05-03T01:10:27.984Z,21.50
2023-05-03T01:13:09.862Z,17.13
2023-05-03T01:15:39.533Z,19.00
2023-05-03T01:18:19.094Z,19.05
2023-05-03T01:20:48.927Z,17.33
2023-05-03T01:23:42.592Z,17.73
2023-05-03T01:26:18.028Z,17.65
2023-05-03T01:28:44.709Z,17.67
2023-05-03T01:31:11.400Z,17.35
2023-05-03T01:33:45.110Z,19.33
2023-05-03T01:36:14.066Z,18.50
2023-05-03T01:38:40.891Z,18.48
2023-05-03T01:41:10.966Z,15.23
2023-05-03T01:43:38.660Z,22.05
2023-05-03T01:46:05.520Z,19.90
2023-05-03T01:48:32.216Z,16.88
2023-05-03T01:50:58.854Z,15.65
2023-05-03T01:53:25.763Z,17.20
2023-05-03T01:55:52.471Z,15.45
2023-05-03T01:58:19.164Z,16.20
2023-05-03T02:00:46.506Z,18.10
2023-05-03T02:03:13.266Z,16.65
2023-05-03T02:05:40.082Z,20.42
2023-05-03T02:08:06.735Z,18.83
2023-05-03T02:10:33.410Z,16.10
2023-05-03T02:13:00.564Z,17.52
2023-05-03T02:15:27.194Z,17.98
2023-05-03T02:17:54.290Z,17.00
2023-05-03T02:20:21.268Z,21.73
2023-05-03T02:22:47.915Z,20.40
2023-05-03T02:25:14.648Z,15.35
2023-05-03T02:27:41.436Z,17.45
2023-05-03T02:30:08.938Z,20.05
2023-05-03T02:32:36.097Z,18.50
2023-05-03T02:35:03.035Z,18.20
2023-05-03T02:37:29.687Z,18.98
2023-05-03T02:39:56.345Z,18.08
2023-05-03T02:42:23.039Z,16.98
2023-05-03T02:44:49.703Z,20.38
2023-05-03T02:47:16.405Z,17.23
2023-05-03T02:49:43.110Z,16.95
2023-05-03T02:52:09.828Z,15.85
2023-05-03T02:54:36.537Z,16.95
2023-05-03T02:57:04.707Z,16.80
2023-05-03T02:59:32.927Z,14.27
2023-05-03T03:01:59.683Z,17.65
2023-05-03T03:04:26.449Z,15.07
2023-05-03T03:06:56.894Z,12.77
2023-05-03T03:09:23.609Z,19.10
2023-05-03T03:11:53.548Z,18.50
2023-05-03T03:14:20.229Z,15.23
2023-05-03T03:16:46.899Z,18.63
2023-05-03T03:19:14.341Z,15.23
2023-05-03T03:21:41.013Z,18.38
2023-05-03T03:24:07.782Z,17.92
2023-05-03T03:26:34.410Z,15.88
2023-05-03T03:29:01.233Z,16.38
2023-05-03T03:31:27.981Z,22.05
2023-05-03T03:33:54.727Z,19.63
2023-05-03T03:36:21.440Z,17.38
2023-05-03T03:38:48.098Z,19.80
2023-05-03T03:41:14.756Z,15.40
2023-05-03T03:43:41.437Z,15.63
2023-05-03T03:46:08.199Z,16.35
2023-05-03T03:48:34.819Z,18.90
2023-05-03T03:51:01.471Z,16.10
2023-05-03T03:53:28.277Z,14.98
2023-05-03T03:55:54.947Z,17.38
2023-05-03T03:58:21.593Z,14.30
2023-05-03T04:00:48.279Z,15.90
2023-05-03T04:03:16.019Z,15.00
2023-05-03T04:05:42.974Z,17.88
2023-05-03T04:08:09.703Z,17.23
2023-05-03T04:10:36.350Z,15.60
2023-05-03T04:13:03.223Z,21.85
2023-05-03T04:15:29.982Z,14.70
2023-05-03T04:17:56.697Z,19.92
2023-05-03T04:20:23.972Z,17.50
2023-05-03T04:22:50.653Z,16.52
2023-05-03T04:25:18.339Z,13.32
2023-05-03T04:27:45.934Z,13.70
2023-05-03T04:30:14.083Z,15.02
2023-05-03T04:32:41.163Z,21.50
2023-05-03T04:35:10.719Z,20.00
2023-05-03T04:37:38.155Z,17.35
2023-05-03T04:40:08.816Z,12.50
2023-05-03T04:42:36.365Z,15.45
2023-05-03T04:45:03.962Z,14.43
2023-05-03T04:47:31.001Z,15.43
2023-05-03T04:49:57.828Z,20.88
2023-05-03T04:52:26.839Z,18.65
2023-05-03T04:54:54.446Z,18.30
2023-05-03T04:57:21.158Z,16.55
2023-05-03T04:59:47.874Z,16.38
2023-05-03T05:02:14.545Z,20.80
2023-05-03T05:04:41.335Z,16.95
2023-05-03T05:07:08.007Z,17.92
2023-05-03T05:09:34.676Z,18.35
2023-05-03T05:12:02.095Z,18.02
2023-05-03T05:14:30.844Z,13.77
2023-05-03T05:16:58.325Z,16.77
2023-05-03T05:19:25.131Z,13.38
2023-05-03T05:21:52.404Z,16.40
2023-05-03T05:24:19.184Z,12.93
2023-05-03T05:26:46.013Z,12.60
2023-05-03T05:29:12.855Z,17.38
2023-05-03T05:31:39.930Z,14.02
2023-05-03T05:34:06.731Z,15.13
2023-05-03T05:36:33.439Z,15.57
2023-05-03T05:39:00.267Z,11.95
2023-05-03T05:41:26.948Z,17.63
2023-05-03T05:43:53.697Z,14.02
2023-05-03T05:46:23.460Z,13.25
2023-05-03T05:48:51.435Z,16.83
2023-05-03T05:51:18.510Z,12.25
2023-05-03T05:53:45.256Z,14.95
2023-05-03T05:56:11.909Z,12.50
2023-05-03T05:58:38.876Z,17.58
2023-05-03T06:01:05.702Z,10.75
2023-05-03T06:03:33.875Z,12.40
2023-05-03T06:06:01.150Z,16.23
2023-05-03T06:08:28.142Z,11.65
2023-05-03T06:10:54.916Z,19.98
2023-05-03T06:13:22.358Z,15.38
2023-05-03T06:15:49.055Z,13.50
2023-05-03T06:18:15.803Z,12.60
2023-05-03T06:20:42.839Z,11.10
2023-05-03T06:23:09.528Z,14.45
2023-05-03T06:25:36.565Z,14.27
2023-05-03T06:28:03.332Z,11.82
2023-05-03T06:30:30.276Z,17.00
2023-05-03T06:32:57.029Z,12.93
2023-05-03T06:35:23.879Z,10.32
2023-05-03T06:37:50.706Z,13.40
2023-05-03T06:40:18.173Z,12.52
2023-05-03T06:42:44.902Z,9.20
2023-05-03T06:45:12.050Z,11.02
2023-05-03T06:47:40.352Z,13.30
2023-05-03T06:50:07.619Z,8.10
2023-05-03T06:52:34.366Z,13.02
2023-05-03T06:55:01.508Z,12.27
2023-05-03T06:57:28.959Z,10.05
2023-05-03T06:59:55.914Z,8.77
2023-05-03T07:02:22.983Z,10.00
2023-05-03T07:04:49.708Z,14.15
2023-05-03T07:07:16.656Z,12.15
2023-05-03T07:09:44.034Z,10.52
2023-05-03T07:12:11.288Z,15.13
2023-05-03T07:14:39.647Z,17.33
2023-05-03T07:17:06.455Z,19.38
2023-05-03T07:19:33.190Z,13.57
2023-05-03T07:21:59.988Z,12.07
2023-05-03T07:24:26.705Z,11.95
2023-05-03T07:26:53.910Z,10.55
2023-05-03T07:29:21.229Z,14.05
2023-05-03T07:31:48.058Z,10.68
2023-05-03T07:34:14.969Z,10.65
2023-05-03T07:36:41.750Z,12.80
2023-05-03T07:39:08.672Z,12.20
2023-05-03T07:41:35.692Z,10.13
2023-05-03T07:44:02.420Z,8.80
2023-05-03T07:46:31.273Z,10.45
2023-05-03T07:48:58.863Z,8.70
2023-05-03T07:51:25.955Z,8.18
2023-05-03T07:53:52.583Z,12.05
2023-05-03T07:56:19.262Z,7.40
2023-05-03T07:58:48.701Z,10.43
2023-05-03T08:01:17.885Z,10.10
2023-05-03T08:03:44.750Z,9.38
2023-05-03T08:06:11.643Z,7.88
2023-05-03T08:08:38.381Z,8.75
2023-05-03T08:11:05.030Z,8.80
2023-05-03T08:13:31.710Z,9.05
2023-05-03T08:15:58.423Z,12.15
2023-05-03T08:18:25.780Z,10.90
2023-05-03T08:20:52.668Z,9.63
2023-05-03T08:23:19.828Z,8.52
2023-05-03T08:25:46.498Z,9.95
2023-05-03T08:28:13.333Z,9.45
2023-05-03T08:30:40.559Z,12.88
2023-05-03T08:33:09.955Z,10.30
2023-05-03T08:35:36.871Z,9.75
2023-05-03T08:38:05.162Z,8.85
2023-05-03T08:40:37.215Z,8.77
2023-05-03T08:43:10.377Z,9.32
2023-05-03T08:45:37.225Z,10.02
2023-05-03T08:48:04.828Z,11.10
2023-05-03T08:50:31.988Z,10.48
2023-05-03T08:52:59.656Z,10.32
2023-05-03T08:55:26.278Z,8.75
2023-05-03T08:57:53.252Z,8.27
2023-05-03T09:00:20.852Z,8.57
2023-05-03T09:02:47.655Z,12.43
2023-05-03T09:05:14.361Z,9.73
2023-05-03T09:07:41.125Z,10.70
2023-05-03T09:10:28.024Z,11.52
2023-05-03T09:12:59.993Z,8.73
2023-05-03T09:15:29.548Z,11.80
2023-05-03T09:18:19.936Z,9.60
2023-05-03T09:20:52.215Z,9.95
2023-05-03T09:23:21.846Z,8.25
2023-05-03T09:25:51.491Z,7.90
2023-05-03T09:28:20.185Z,10.43
2023-05-03T09:30:48.288Z,8.77
2023-05-03T09:33:22.970Z,7.90
2023-05-03T09:35:58.400Z,9.63
2023-05-03T09:38:30.021Z,10.60
2023-05-03T09:40:57.627Z,9.50
2023-05-03T09:43:24.631Z,7.43
2023-05-03T09:45:51.744Z,10.00
2023-05-03T09:48:22.888Z,8.50
2023-05-03T09:50:49.622Z,10.48
2023-05-03T09:53:18.886Z,6.88
2023-05-03T09:55:47.052Z,8.93
2023-05-03T09:58:14.688Z,11.50
2023-05-03T10:00:43.979Z,10.57
2023-05-03T10:03:41.021Z,11.32
2023-05-03T10:06:21.750Z,7.45
2023-05-03T10:09:02.126Z,10.52
2023-05-03T10:11:29.275Z,8.57
2023-05-03T10:13:56.226Z,9.50
2023-05-03T10:16:28.224Z,8.23
2023-05-03T10:19:04.248Z,9.15
2023-05-03T10:21:57.470Z,7.45
2023-05-03T10:24:24.187Z,10.23
2023-05-03T10:26:51.881Z,7.88
2023-05-03T10:29:46.272Z,10.80
2023-05-03T10:32:32.505Z,13.15
2023-05-03T10:35:16.543Z,11.00
2023-05-03T10:37:45.497Z,8.43
2023-05-03T10:42:47.392Z,10.02
2023-05-03T10:45:26.317Z,8.52
2023-05-03T10:48:11.441Z,9.65
2023-05-03T10:50:42.029Z,8.68
2023-05-03T10:53:09.822Z,6.05
2023-05-03T10:55:36.620Z,7.90
2023-05-03T10:58:04.005Z,7.55
2023-05-03T11:00:34.223Z,8.73
2023-05-03T11:03:19.022Z,8.55
2023-05-03T11:05:47.993Z,10.30
2023-05-03T11:10:42.013Z,8.02
2023-05-03T11:13:08.780Z,8.82
2023-05-03T11:15:35.895Z,9.57
2023-05-03T11:18:03.347Z,10.32
2023-05-03T11:20:30.266Z,12.45
2023-05-03T11:22:57.078Z,9.95
2023-05-03T11:25:23.744Z,11.15
2023-05-03T11:27:50.556Z,12.93
2023-05-03T11:30:36.064Z,10.88
2023-05-03T11:33:03.598Z,7.03
2023-05-03T11:35:33.656Z,11.73
2023-05-03T11:38:00.851Z,8.90
2023-05-03T11:40:27.898Z,10.90
2023-05-03T11:42:59.019Z,14.35
2023-05-03T11:45:29.488Z,14.70
2023-05-03T11:47:56.887Z,11.75
2023-05-03T11:50:28.636Z,12.50
2023-05-03T11:52:56.180Z,9.88
2023-05-03T11:55:22.997Z,11.20
2023-05-03T11:57:49.661Z,17.52
2023-05-03T12:00:20.892Z,16.63
2023-05-03T12:02:51.261Z,8.70
2023-05-03T12:05:18.837Z,10.73
2023-05-03T12:07:47.653Z,12.25
2023-05-03T12:10:25.742Z,13.95
2023-05-03T12:13:00.301Z,11.43
2023-05-03T12:15:33.363Z,14.38
2023-05-03T12:18:04.178Z,9.35
2023-05-03T12:23:04.159Z,9.65
2023-05-03T12:25:34.053Z,9.82
2023-05-03T12:30:33.951Z,9.45
2023-05-03T12:33:04.307Z,13.43
2023-05-03T12:35:34.013Z,20.25
2023-05-03T12:38:03.399Z,12.25
2023-05-03T12:40:34.018Z,8.73
2023-05-03T12:43:01.832Z,14.25
2023-05-03T12:45:33.805Z,13.73
2023-05-03T12:48:01.610Z,10.57
2023-05-03T12:50:31.207Z,9.02
2023-05-03T12:53:02.274Z,12.63
2023-05-03T12:55:34.617Z,13.27
2023-05-03T13:00:36.617Z,10.73
2023-05-03T13:05:36.275Z,12.95
2023-05-03T13:08:08.473Z,10.48
2023-05-03T13:10:36.345Z,9.18
2023-05-03T13:13:03.348Z,11.38
2023-05-03T13:15:30.291Z,8.98
2023-05-03T13:17:57.307Z,11.13
2023-05-03T13:20:24.358Z,9.43
2023-05-03T13:22:51.222Z,13.50
2023-05-03T13:25:17.905Z,12.15
2023-05-03T13:27:46.813Z,11.90
2023-05-03T13:30:14.934Z,10.02
2023-05-03T13:32:42.275Z,11.20
2023-05-03T13:35:09.814Z,11.25
2023-05-03T13:37:36.602Z,15.70
2023-05-03T13:40:03.534Z,15.57
2023-05-03T13:42:30.591Z,11.68
2023-05-03T13:44:57.325Z,16.90
2023-05-03T13:47:24.724Z,11.23
2023-05-03T13:49:56.500Z,11.25
2023-05-03T13:52:23.995Z,13.07
2023-05-03T13:54:50.942Z,11.32
2023-05-03T13:57:18.057Z,14.10
2023-05-03T13:59:44.714Z,16.17
2023-05-03T14:02:12.039Z,12.50
2023-05-03T14:04:38.737Z,21.35
2023-05-03T14:07:05.453Z,12.40
2023-05-03T14:09:32.144Z,23.25
2023-05-03T14:11:58.818Z,9.93
2023-05-03T14:14:28.270Z,10.20
2023-05-03T14:16:55.054Z,13.27
2023-05-03T14:19:21.880Z,9.75
2023-05-03T14:21:51.285Z,8.55
2023-05-03T14:24:18.078Z,12.05
2023-05-03T14:26:44.755Z,11.68
2023-05-03T14:29:11.548Z,12.10
2023-05-03T14:31:38.356Z,15.25
2023-05-03T14:34:05.246Z,8.43
2023-05-03T14:36:36.211Z,11.60
2023-05-03T14:39:04.316Z,15.13
2023-05-03T14:41:32.203Z,13.48
2023-05-03T14:43:58.894Z,15.15
2023-05-03T14:46:25.710Z,9.63
2023-05-03T14:48:52.477Z,12.60
2023-05-03T14:51:19.167Z,10.23
2023-05-03T14:53:45.847Z,14.25
2023-05-03T14:56:12.603Z,12.77
2023-05-03T14:58:39.226Z,12.65
2023-05-03T15:01:06.587Z,10.40
2023-05-03T15:03:33.467Z,21.45
2023-05-03T15:06:01.068Z,18.67
2023-05-03T15:08:27.919Z,14.68
2023-05-03T15:10:54.578Z,12.40
2023-05-03T15:13:21.562Z,12.98
2023-05-03T15:15:48.362Z,15.32
2023-05-03T15:18:15.758Z,16.45
2023-05-03T15:20:42.385Z,14.20
2023-05-03T15:23:09.170Z,17.00
2023-05-03T15:25:35.946Z,12.82
2023-05-03T15:28:04.540Z,17.75
2023-05-03T15:30:32.919Z,15.32
2023-05-03T15:33:01.156Z,13.68
2023-05-03T15:35:28.100Z,12.63
2023-05-03T15:37:54.840Z,16.95
2023-05-03T15:40:23.810Z,14.40
2023-05-03T15:42:52.029Z,17.92
2023-05-03T15:45:19.344Z,14.90
2023-05-03T15:47:46.403Z,13.30
2023-05-03T15:50:13.486Z,14.32
2023-05-03T15:52:40.572Z,16.77
2023-05-03T15:55:09.096Z,16.67
2023-05-03T15:57:35.759Z,20.05
2023-05-03T16:00:03.291Z,14.85
2023-05-03T16:02:30.811Z,18.98
2023-05-03T16:04:57.553Z,15.90
2023-05-03T16:07:24.218Z,12.50
2023-05-03T16:09:51.094Z,21.88
2023-05-03T16:12:17.772Z,24.55
2023-05-03T16:14:44.532Z,18.95
2023-05-03T16:17:11.219Z,12.98
2023-05-03T16:19:38.033Z,17.20
2023-05-03T16:22:05.294Z,15.13
2023-05-03T16:24:33.455Z,22.35
2023-05-03T16:27:01.897Z,16.65
2023-05-03T16:29:28.884Z,24.45
2023-05-03T16:31:56.267Z,22.92
2023-05-03T16:34:22.978Z,23.05
2023-05-03T16:36:50.802Z,15.43
2023-05-03T16:39:17.946Z,16.52
2023-05-03T16:41:44.752Z,16.08
2023-05-03T16:44:11.564Z,15.43
2023-05-03T16:46:39.839Z,14.48
2023-05-03T16:49:07.283Z,19.92
2023-05-03T16:51:34.096Z,14.35
2023-05-03T16:54:04.327Z,20.23
2023-05-03T16:56:31.438Z,19.58
2023-05-03T16:58:59.357Z,19.42
2023-05-03T17:01:26.410Z,21.13
2023-05-03T17:03:53.466Z,32.72
2023-05-03T17:06:20.371Z,26.17
2023-05-03T17:08:47.090Z,18.30
2023-05-03T17:11:14.470Z,26.98
2023-05-03T17:13:41.570Z,26.92
2023-05-03T17:16:10.915Z,15.57
2023-05-03T17:18:38.845Z,15.60
2023-05-03T17:21:05.934Z,13.23
2023-05-03T17:23:36.243Z,16.40
2023-05-03T17:26:04.569Z,16.20
2023-05-03T17:28:32.612Z,16.75
2023-05-03T17:30:59.747Z,13.60
2023-05-03T17:33:26.970Z,18.33
2023-05-03T17:35:55.833Z,16.65
2023-05-03T17:38:23.339Z,15.57
2023-05-03T17:40:50.087Z,14.48
2023-05-03T17:43:17.822Z,16.08
2023-05-03T17:45:47.379Z,17.50
2023-05-03T17:48:14.712Z,16.10
2023-05-03T17:50:46.262Z,25.75
2023-05-03T17:53:13.119Z,19.25
2023-05-03T17:55:40.418Z,20.67
2023-05-03T17:58:07.263Z,18.90
2023-05-03T18:00:34.034Z,18.88
2023-05-03T18:03:01.282Z,19.33
2023-05-03T18:05:28.560Z,17.10
2023-05-03T18:07:55.343Z,25.27
2023-05-03T18:10:22.412Z,20.92
2023-05-03T18:12:49.236Z,15.90
2023-05-03T18:15:16.314Z,21.73
2023-05-03T18:17:43.496Z,17.38
2023-05-03T18:20:10.926Z,19.80
2023-05-03T18:22:37.805Z,18.02
2023-05-03T18:25:07.531Z,22.08
2023-05-03T18:27:37.582Z,10.75
2023-05-03T18:30:06.876Z,14.50
2023-05-03T18:32:34.451Z,25.15
2023-05-03T18:35:01.448Z,14.57
2023-05-03T18:37:28.484Z,12.05
2023-05-03T18:39:55.229Z,13.10
2023-05-03T18:42:22.749Z,14.23
2023-05-03T18:44:49.602Z,16.20
2023-05-03T18:47:20.792Z,23.38
2023-05-03T18:49:52.748Z,17.10
2023-05-03T18:52:20.523Z,18.50
2023-05-03T18:54:47.482Z,18.58
2023-05-03T18:57:14.181Z,16.80
2023-05-03T18:59:52.482Z,15.07
2023-05-03T19:02:25.382Z,13.73
2023-05-03T19:04:52.721Z,11.50
2023-05-03T19:07:19.607Z,12.07
2023-05-03T19:09:46.274Z,18.33
2023-05-03T19:12:13.612Z,11.18
2023-05-03T19:14:43.026Z,16.85
2023-05-03T19:17:09.754Z,13.82
2023-05-03T19:19:36.506Z,22.25
2023-05-03T19:22:03.649Z,15.43
2023-05-03T19:24:30.406Z,13.00
2023-05-03T19:26:57.127Z,12.73
2023-05-03T19:29:23.929Z,18.98
2023-05-03T19:31:50.710Z,15.88
2023-05-03T19:34:17.768Z,15.30
2023-05-03T19:36:44.447Z,12.20
2023-05-03T19:39:11.498Z,16.00
2023-05-03T19:41:38.808Z,19.75
2023-05-03T19:44:06.153Z,12.00
2023-05-03T19:46:33.923Z,12.50
2023-05-03T19:49:01.393Z,14.38
2023-05-03T19:51:28.182Z,13.57
2023-05-03T19:53:55.160Z,16.88
2023-05-03T19:56:22.143Z,11.55
2023-05-03T19:58:50.702Z,14.10
2023-05-03T20:01:17.631Z,16.77
2023-05-03T20:03:44.632Z,13.93
2023-05-03T20:06:11.449Z,11.70
2023-05-03T20:08:38.182Z,17.05
2023-05-03T20:11:04.890Z,12.73
2023-05-03T20:13:31.790Z,16.85
2023-05-03T20:15:58.476Z,13.18
2023-05-03T20:18:25.219Z,16.15
2023-05-03T20:20:51.851Z,12.65
2023-05-03T20:23:18.578Z,13.45
2023-05-03T20:25:48.069Z,14.43
2023-05-03T20:28:14.731Z,17.13
2023-05-03T20:30:41.682Z,11.95
2023-05-03T20:33:08.480Z,11.30
2023-05-03T20:35:37.885Z,13.13
2023-05-03T20:38:08.003Z,13.63
2023-05-03T20:40:35.624Z,14.60
2023-05-03T20:43:02.363Z,19.50
2023-05-03T20:45:29.312Z,13.30
2023-05-03T20:47:56.468Z,15.20
2023-05-03T20:50:23.203Z,15.05
2023-05-03T20:52:49.948Z,18.35
2023-05-03T20:55:16.765Z,16.88
2023-05-03T20:57:43.781Z,11.75
2023-05-03T21:00:15.861Z,12.45
2023-05-03T21:02:43.469Z,17.02
2023-05-03T21:05:10.957Z,16.23
2023-05-03T21:07:38.471Z,16.73
2023-05-03T21:10:07.057Z,14.02
2023-05-03T21:12:34.804Z,13.32
2023-05-03T21:15:01.827Z,14.23
2023-05-03T21:17:28.567Z,16.58
2023-05-03T21:19:55.303Z,15.18
2023-05-03T21:22:22.487Z,15.77
2023-05-03T21:24:49.177Z,14.57
2023-05-03T21:27:15.886Z,17.63
2023-05-03T21:29:42.709Z,19.27
2023-05-03T21:32:09.489Z,14.77
2023-05-03T21:34:36.167Z,13.07
2023-05-03T21:37:03.806Z,15.50
2023-05-03T21:39:30.646Z,11.68
2023-05-03T21:41:58.068Z,14.27
2023-05-03T21:44:24.776Z,17.75
2023-05-03T21:46:51.577Z,14.55
2023-05-03T21:49:18.427Z,12.43
2023-05-03T21:51:45.257Z,16.52
2023-05-03T21:54:11.976Z,13.55
2023-05-03T21:56:38.728Z,16.48
2023-05-03T21:59:05.785Z,11.95
2023-05-03T22:01:32.605Z,13.32
2023-05-03T22:03:59.874Z,17.30
2023-05-03T22:06:26.855Z,10.98
2023-05-03T22:08:53.736Z,21.55
2023-05-03T22:11:21.796Z,23.33
2023-05-03T22:14:03.676Z,18.15
2023-05-03T22:16:33.588Z,17.25
2023-05-03T22:19:00.330Z,13.00
2023-05-03T22:21:27.524Z,16.33
2023-05-03T22:23:54.222Z,20.75
2023-05-03T22:26:20.846Z,15.63
2023-05-03T22:28:47.544Z,16.58
2023-05-03T22:31:14.229Z,13.38
2023-05-03T22:33:41.459Z,13.10
2023-05-03T22:36:08.659Z,14.15
2023-05-03T22:38:35.290Z,16.42
2023-05-03T22:41:02.017Z,13.60
2023-05-03T22:43:28.663Z,15.02
2023-05-03T22:45:55.495Z,11.23
2023-05-03T22:48:22.633Z,15.00
2023-05-03T22:50:49.293Z,19.50
2023-05-03T22:53:16.192Z,10.65
2023-05-03T22:55:42.852Z,13.10
2023-05-03T22:58:09.550Z,12.25
2023-05-03T23:00:36.467Z,11.70
2023-05-03T23:03:03.399Z,12.05
2023-05-03T23:05:30.508Z,14.90
2023-05-03T23:07:57.390Z,13.52
2023-05-03T23:10:24.051Z,12.63
2023-05-03T23:12:50.783Z,10.57
2023-05-03T23:15:17.447Z,14.38
2023-05-03T23:17:44.185Z,11.48
2023-05-03T23:20:11.717Z,14.07
2023-05-03T23:22:40.875Z,12.25
2023-05-03T23:27:34.698Z,13.30
2023-05-03T23:30:02.310Z,10.52
2023-05-03T23:32:29.775Z,12.32
2023-05-03T23:34:56.768Z,15.90
2023-05-03T23:37:23.449Z,17.20
2023-05-03T23:39:50.147Z,16.88
2023-05-03T23:42:16.788Z,14.85
2023-05-03T23:44:54.811Z,15.25
2023-05-03T23:47:22.498Z,17.98
2023-05-03T23:49:49.284Z,17.63
2023-05-03T23:52:19.015Z,21.33
2023-05-03T23:54:45.967Z,15.85
2023-05-03T23:57:12.638Z,14.77
2023-05-03T23:59:39.455Z,16.02
